Flight Track Log - Related Links

Times and Time Zones

All times are in EDT time to prevent confusion due to time zone crossing. See the N130LH flight status page for this flight to view local times or setup timezone preferences in your user account.

Time Position Orientation Groundspeed Altitude Reporting Facility
EDT Latitude Longitude Course Direction KTS MPH feet Rate Location/Type
Fri 05:30:07 PM 33.8833 -118.3833 68° East 131 151 1,900  Level Southern California TRACON
Fri 05:31:15 PM 33.8664 -118.4064 228° Southwest 123 142 3,000 923 Climbing Los Angeles Center
Fri 05:32:17 PM 33.8369 -118.4150 194° South 126 145 3,900 871 Climbing Los Angeles Center
Fri 05:33:19 PM 33.7933 -118.4053 170° South 142 163 4,800 532 Climbing Los Angeles Center
Fri 05:34:21 PM 33.7597 -118.3758 144° Southeast 153 176 5,000 145 Climbing Los Angeles Center
Fri 05:35:00 PM 34.0172 -118.0453 68° East  Level Estimated
Fri 05:35:23 PM 33.7319 -118.3283 125° Southeast 156 180 5,100  Level Los Angeles Center
Fri 05:36:25 PM 33.7494 -118.2633 72° East 170 196 5,400 387 Climbing Los Angeles Center
Fri 05:37:27 PM 33.7597 -118.2103 77° East 167 192 5,900 290 Climbing Los Angeles Center
Fri 05:38:29 PM 33.7703 -118.1547 77° East 168 193 6,000  Climbing Los Angeles Center
Fri 05:39:14 PM 33.7833 -118.1000 74° East 169 194 5,900 -57 Descending Southern California TRACON
Fri 05:40:14 PM 33.7833 -118.0500 90° East 150 173 5,900  Level Southern California TRACON
Fri 05:41:14 PM 33.7833 -118.0000 90° East 135 155 5,900 298 Level Southern California TRACON
Fri 05:42:15 PM 33.7833 -117.9500 90° East 123 142 6,500 567 Climbing Southern California TRACON
Fri 05:43:21 PM 33.7667 -117.9000 112° Southeast 119 137 7,100 500 Climbing Southern California TRACON
Fri 05:44:15 PM 33.7667 -117.8667 90° East 125 144 7,500 450 Climbing Southern California TRACON
Fri 05:45:21 PM 33.7667 -117.8167 90° East 137 158 8,000 446 Climbing Southern California TRACON
Fri 05:46:16 PM 33.7667 -117.7833 90° East 140 161 8,400 446 Climbing Southern California TRACON
Fri 05:47:22 PM 33.7667 -117.7333 90° East 142 163 8,900 429 Climbing Southern California TRACON
Fri 05:48:22 PM 33.7500 -117.6833 112° Southeast 143 165 9,300 397 Climbing Southern California TRACON
Fri 05:49:23 PM 33.7500 -117.6333 90° East 145 167 9,700 396 Climbing Southern California TRACON
Fri 05:49:53 PM 33.7531 -117.6128 80° East 144 166 9,900 391 Climbing Los Angeles Center
Fri 05:50:55 PM 33.7497 -117.5628 95° East 148 170 10,300 435 Climbing Los Angeles Center
Fri 05:51:57 PM 33.7442 -117.5147 98° East 145 167 10,800 339 Climbing Los Angeles Center
Fri 05:52:59 PM 33.7389 -117.4553 96° East 150 173 11,000 48 Climbing Los Angeles Center
Fri 05:54:01 PM 33.7350 -117.3989 95° East 166 191 10,900 -48 Descending Los Angeles Center
Fri 05:55:04 PM 33.7292 -117.3425 97° East 170 196 10,900 48 Level Los Angeles Center
Fri 05:56:06 PM 33.7250 -117.2839 95° East 175 201 11,000 48 Climbing Los Angeles Center
Fri 05:57:08 PM 33.7211 -117.2267 95° East 173 199 11,000  Level Los Angeles Center
Fri 05:58:10 PM 33.7161 -117.1706 96° East 172 198 11,000  Level Los Angeles Center
Fri 05:59:12 PM 33.7094 -117.1017 97° East 173 199 11,000  Level Los Angeles Center
Fri 06:00:14 PM 33.7044 -117.0444 96° East 172 198 11,000  Level Los Angeles Center
Fri 06:01:16 PM 33.7008 -116.9867 94° East 174 200 11,000  Level Los Angeles Center
Fri 06:02:18 PM 33.6972 -116.9297 94° East 173 199 11,000 48 Level Los Angeles Center
Fri 06:03:20 PM 33.6886 -116.8725 100° East 173 199 11,100  Climbing Los Angeles Center
Fri 06:05:25 PM 33.6819 -116.7489 94° East 169 194 11,000 -32 Descending Los Angeles Center
Fri 06:06:27 PM 33.6764 -116.6906 97° East 172 198 11,000  Level Los Angeles Center
Fri 06:07:29 PM 33.6711 -116.6336 96° East 173 199 11,000 -48 Level Los Angeles Center
Fri 06:08:31 PM 33.6664 -116.5750 96° East 174 200 10,900  Descending Los Angeles Center
Fri 06:09:33 PM 33.6619 -116.5186 95° East 173 199 11,000 48 Climbing Los Angeles Center
Fri 06:10:35 PM 33.6558 -116.4625 97° East 171 197 11,000  Level Los Angeles Center
Fri 06:11:37 PM 33.6494 -116.3947 96° East 171 197 11,000  Level Los Angeles Center
Fri 06:12:40 PM 33.6450 -116.3383 95° East 170 196 11,000  Level Los Angeles Center
Fri 06:13:42 PM 33.6400 -116.2808 96° East 171 197 11,000  Level Los Angeles Center
Fri 06:14:44 PM 33.6347 -116.2225 96° East 173 199 11,000  Level Los Angeles Center
Fri 06:15:58 PM 33.6306 -116.1647 95° East 174 200 11,000  Level Los Angeles Center
Fri 06:17:00 PM 33.6631 -116.1242 46° Northeast 174 200 11,000  Level Los Angeles Center
Fri 06:18:03 PM 33.6919 -116.0536 64° Northeast 167 192 11,000  Level Los Angeles Center
Fri 06:19:05 PM 33.7111 -116.0017 66° East 168 193 11,000  Level Los Angeles Center
Fri 06:20:07 PM 33.7414 -115.9578 50° Northeast 171 197 11,000  Level Los Angeles Center
Fri 06:21:09 PM 33.7753 -115.9178 44° Northeast 171 197 11,000  Level Los Angeles Center
Fri 06:22:11 PM 33.8075 -115.8769 46° Northeast 170 196 11,000  Level Los Angeles Center
Fri 06:23:13 PM 33.8431 -115.8281 49° Northeast 165 190 11,000  Level Los Angeles Center
Fri 06:24:15 PM 33.8736 -115.7853 49° Northeast 166 191 11,000  Level Los Angeles Center
Fri 06:25:17 PM 33.9044 -115.7408 50° Northeast 169 194 11,000  Level Los Angeles Center
Fri 06:26:19 PM 33.9353 -115.6958 50° Northeast 172 198 11,000  Level Los Angeles Center
Fri 06:27:22 PM 33.9664 -115.6506 50° Northeast 173 199 11,000  Level Los Angeles Center
Fri 06:28:24 PM 33.9967 -115.6050 51° Northeast 174 200 11,000  Level Los Angeles Center
Fri 06:29:26 PM 34.0328 -115.5525 50° Northeast 171 197 11,000  Level Los Angeles Center
Fri 06:30:28 PM 34.0628 -115.5097 50° Northeast 170 196 11,000  Level Los Angeles Center
Fri 06:31:30 PM 34.0922 -115.4636 52° Northeast 171 197 11,000  Level Los Angeles Center
Fri 06:32:32 PM 34.1233 -115.4217 48° Northeast 170 196 11,000  Level Los Angeles Center
Fri 06:33:34 PM 34.1533 -115.3789 50° Northeast 169 194 11,000  Level Los Angeles Center
Fri 06:34:36 PM 34.1833 -115.3344 51° Northeast 169 194 11,000  Level Los Angeles Center
Fri 06:35:38 PM 34.2200 -115.2814 50° Northeast 171 197 11,000 97 Level Los Angeles Center
Fri 06:36:40 PM 34.2503 -115.2367 51° Northeast 172 198 11,200 96 Climbing Los Angeles Center
Fri 06:37:43 PM 34.2808 -115.1917 51° Northeast 173 199 11,200  Level Los Angeles Center
Fri 06:38:45 PM 34.3111 -115.1483 50° Northeast 172 198 11,200  Level Los Angeles Center
Fri 06:39:47 PM 34.3417 -115.1022 51° Northeast 172 198 11,200  Level Los Angeles Center
Fri 06:40:49 PM 34.3778 -115.0475 51° Northeast 174 200 11,200 -48 Level Los Angeles Center
Fri 06:41:51 PM 34.4081 -115.0064 48° Northeast 173 199 11,100 -48 Descending Los Angeles Center
Fri 06:42:53 PM 34.4392 -114.9597 51° Northeast 176 203 11,100  Level Los Angeles Center
Fri 06:43:55 PM 34.4692 -114.9153 51° Northeast 173 199 11,100  Level Los Angeles Center
Fri 06:44:57 PM 34.4989 -114.8711 51° Northeast 171 197 11,100  Level Los Angeles Center
Fri 06:45:59 PM 34.5353 -114.8178 50° Northeast 171 197 11,100  Level Los Angeles Center
Fri 06:47:02 PM 34.5664 -114.7731 50° Northeast 172 198 11,100  Level Los Angeles Center
Fri 06:48:04 PM 34.5964 -114.7278 51° Northeast 173 199 11,100  Level Los Angeles Center
Fri 06:49:06 PM 34.6275 -114.6825 50° Northeast 174 200 11,100  Level Los Angeles Center
Fri 06:50:08 PM 34.6578 -114.6375 51° Northeast 173 199 11,100 48 Level Los Angeles Center
Fri 06:51:10 PM 34.6872 -114.5925 51° Northeast 172 198 11,200 -48 Climbing Los Angeles Center
Fri 06:52:12 PM 34.7236 -114.5375 51° Northeast 173 199 11,000 -194 Descending Los Angeles Center
Fri 06:53:14 PM 34.7547 -114.4911 51° Northeast 176 203 10,800 -387 Descending Los Angeles Center
Fri 06:54:16 PM 34.7903 -114.4444 47° Northeast 187 215 10,200 -581 Descending Los Angeles Center
Fri 06:55:18 PM 34.8294 -114.4017 42° Northeast 190 219 9,600 -581 Descending Los Angeles Center

Login

Don't have an account? Register now (free) for customized features, flight alerts, and more!